Time;durP1;ratioP1;P1;durP2;ratioP2;P2;SDS_P1;SDS_P2;PMS_P1;PMS_P2;Temp;Humidity;BMP_temperature;BMP_pressure;BME280_temperature;BME280_humidity;BME280_pressure;Samples;Min_cycle;Max_cycle;Signal;HPM_P1;HPM_P2
2023/05/03 00:01:24;;;;;;;3.60;2.67;;;;;;;14.31;54.39;100051.44;5012234;28;20682;-68
2023/05/03 00:03:52;;;;;;;4.60;2.80;;;;;;;14.41;54.48;100051.84;5018463;28;20197;-67
2023/05/03 00:06:19;;;;;;;3.93;2.87;;;;;;;14.33;53.87;100048.53;5032225;28;20197;-67
2023/05/03 00:08:45;;;;;;;3.87;2.50;;;;;;;14.36;54.44;100048.97;5032223;28;20280;-67
2023/05/03 00:11:12;;;;;;;2.87;2.67;;;;;;;14.35;53.86;100050.00;5031996;28;20267;-67
2023/05/03 00:13:40;;;;;;;3.03;2.83;;;;;;;14.35;54.08;100025.94;5030467;28;20262;-67
2023/05/03 00:16:07;;;;;;;3.13;2.93;;;;;;;14.35;53.74;100020.59;5012088;28;20198;-67
2023/05/03 00:18:34;;;;;;;3.43;2.80;;;;;;;14.48;53.86;100035.78;5012126;28;20252;-67
2023/05/03 00:21:01;;;;;;;6.13;2.93;;;;;;;14.52;53.63;100043.19;5012021;28;20240;-67
2023/05/03 00:23:28;;;;;;;5.43;3.40;;;;;;;14.52;53.08;100048.53;5012370;28;20190;-67
2023/05/03 00:25:55;;;;;;;3.80;3.20;;;;;;;14.43;53.33;100043.63;5030360;28;20791;-67
2023/05/03 00:28:22;;;;;;;3.80;3.43;;;;;;;14.51;53.36;100041.56;5031695;28;20278;-68
2023/05/03 00:30:51;;;;;;;3.07;2.70;;;;;;;14.21;53.93;100013.59;5031993;28;20210;-67
2023/05/03 00:33:17;;;;;;;4.83;2.90;;;;;;;14.46;53.69;100036.00;5032027;28;20197;-67
2023/05/03 00:35:44;;;;;;;3.10;2.90;;;;;;;14.51;53.26;100033.53;5014855;28;20229;-68
2023/05/03 00:38:13;;;;;;;4.03;3.53;;;;;;;14.54;52.96;100027.75;5012274;28;20198;-68
2023/05/03 00:40:39;;;;;;;4.97;2.80;;;;;;;14.39;53.14;100032.53;5012133;28;20194;-68
2023/05/03 00:43:06;;;;;;;7.83;3.30;;;;;;;14.27;54.05;100028.00;5011943;28;20205;-68
2023/05/03 00:45:34;;;;;;;10.63;3.27;;;;;;;14.32;53.81;100025.53;5025549;28;20197;-68
2023/05/03 00:48:02;;;;;;;6.17;2.80;;;;;;;14.16;54.89;100021.41;5031949;28;20201;-68
2023/05/03 00:50:29;;;;;;;3.37;2.43;;;;;;;14.18;54.84;100035.34;5031368;28;20311;-69
2023/05/03 00:52:56;;;;;;;3.90;2.87;;;;;;;14.17;54.88;100031.03;5031853;28;20200;-68
2023/05/03 00:55:24;;;;;;;3.97;2.60;;;;;;;14.21;54.27;100029.63;5018302;28;20197;-68
2023/05/03 00:57:51;;;;;;;7.63;3.23;;;;;;;13.93;55.30;100023.63;5014341;28;20277;-68
2023/05/03 01:00:19;;;;;;;3.20;3.00;;;;;;;13.84;55.67;100011.53;5015514;28;20670;-68
2023/05/03 01:02:45;;;;;;;2.70;2.50;;;;;;;13.92;55.15;100027.34;5015942;28;20316;-68
2023/05/03 01:05:14;;;;;;;2.50;2.30;;;;;;;13.87;55.28;100015.63;5022585;28;20202;-68
2023/05/03 01:07:51;;;;;;;3.03;2.70;;;;;;;13.88;55.56;100023.44;5015313;28;20205;-68
2023/05/03 01:10:23;;;;;;;2.93;2.63;;;;;;;13.93;55.08;100020.16;5015389;28;20189;-67
2023/05/03 01:12:57;;;;;;;2.57;2.40;;;;;;;14.03;55.29;100020.56;5015700;28;20263;-68
2023/05/03 01:15:40;;;;;;;2.90;2.67;;;;;;;14.07;55.16;100033.31;5027076;28;20725;-68
2023/05/03 01:18:11;;;;;;;3.70;3.37;;;;;;;14.07;54.57;100025.31;5035427;28;20185;-68
2023/05/03 01:20:43;;;;;;;7.77;3.60;;;;;;;13.87;55.03;100021.81;5034990;28;20680;-68
2023/05/03 01:23:18;;;;;;;3.37;3.17;;;;;;;13.87;55.32;100021.81;5027651;28;20190;-67
2023/05/03 01:25:46;;;;;;;4.47;3.40;;;;;;;14.03;54.98;100018.72;5015039;28;20570;-68
2023/05/03 01:28:13;;;;;;;4.37;3.13;;;;;;;13.73;55.28;100005.97;5015211;28;20201;-68
2023/05/03 01:30:41;;;;;;;3.70;3.40;;;;;;;13.53;56.26;100003.28;5014904;28;20622;-68
2023/05/03 01:33:26;;;;;;;4.17;3.03;;;;;;;13.62;56.08;100006.56;5019733;28;20754;-68
2023/05/03 01:35:57;;;;;;;4.50;3.03;;;;;;;13.73;56.32;100009.44;5034868;28;20235;-68
2023/05/03 01:38:24;;;;;;;3.80;2.57;;;;;;;13.41;56.85;100020.06;5034642;28;20703;-67
2023/05/03 01:40:55;;;;;;;4.23;2.83;;;;;;;13.34;57.30;100013.88;5034884;28;20201;-67
2023/05/03 01:43:23;;;;;;;3.33;2.53;;;;;;;13.35;57.71;100027.03;5027419;28;20178;-67
2023/05/03 01:45:50;;;;;;;3.13;2.80;;;;;;;13.47;57.24;100012.06;5014648;28;20281;-67
2023/05/03 01:48:18;;;;;;;2.80;2.60;;;;;;;13.52;56.78;100006.94;5015088;28;20193;-67
2023/05/03 01:50:45;;;;;;;3.13;2.83;;;;;;;13.60;56.48;100004.09;5014582;28;20290;-67
2023/05/03 01:53:12;;;;;;;2.63;2.43;;;;;;;13.62;56.02;100003.88;5030632;28;20200;-68
2023/05/03 01:55:39;;;;;;;2.53;2.43;;;;;;;13.67;55.85;99998.75;5034049;28;20243;-68
2023/05/03 01:58:07;;;;;;;4.23;3.20;;;;;;;13.48;56.21;99979.03;5034259;28;20193;-68
2023/05/03 02:00:33;;;;;;;6.53;2.90;;;;;;;13.70;55.85;99991.19;5034617;28;20201;-68
2023/05/03 02:03:00;;;;;;;2.93;2.73;;;;;;;13.61;56.23;99989.75;5023665;28;20194;-68
2023/05/03 02:05:27;;;;;;;4.40;2.70;;;;;;;13.63;56.79;99994.84;5034763;28;20280;-68
2023/05/03 02:07:53;;;;;;;3.27;2.70;;;;;;;13.65;56.49;99993.66;5034161;28;20198;-67
2023/05/03 02:10:20;;;;;;;3.30;3.00;;;;;;;13.69;57.00;99989.50;5034456;28;20247;-67
2023/05/03 02:12:47;;;;;;;3.77;2.67;;;;;;;13.78;57.20;99988.31;5032719;28;20213;-67
2023/05/03 02:15:17;;;;;;;3.70;2.67;;;;;;;13.75;55.99;99991.38;5034333;28;20193;-67
2023/05/03 02:17:44;;;;;;;2.67;2.47;;;;;;;13.80;56.54;100004.94;5034174;28;20615;-68
2023/05/03 02:20:11;;;;;;;2.97;2.70;;;;;;;13.89;56.57;100003.72;5033979;28;20687;-68
2023/05/03 02:22:38;;;;;;;3.80;3.10;;;;;;;13.93;56.98;100002.28;5026673;28;20295;-68
2023/05/03 02:25:06;;;;;;;3.43;3.23;;;;;;;13.98;57.06;100013.19;5014236;28;20657;-68
2023/05/03 02:27:33;;;;;;;3.53;3.00;;;;;;;14.00;56.72;100005.78;5013788;28;20329;-68
2023/05/03 02:29:59;;;;;;;3.47;3.27;;;;;;;14.03;56.96;100000.03;5014655;28;20284;-68
2023/05/03 02:32:27;;;;;;;3.13;2.90;;;;;;;14.03;56.89;99999.19;5016846;28;20226;-69
2023/05/03 02:34:54;;;;;;;3.93;3.57;;;;;;;14.11;56.62;100002.50;5034002;28;20573;-68
2023/05/03 02:37:21;;;;;;;5.13;3.43;;;;;;;14.14;57.00;99996.72;5033892;28;20251;-68
2023/05/03 02:39:48;;;;;;;5.73;3.50;;;;;;;14.06;56.26;99999.63;5033564;28;20197;-68
2023/05/03 02:42:15;;;;;;;4.57;3.60;;;;;;;14.06;56.66;99994.28;5031925;28;20251;-69
2023/05/03 02:44:41;;;;;;;3.90;3.70;;;;;;;13.93;56.80;99993.47;5032807;28;20247;-67
2023/05/03 02:47:08;;;;;;;5.60;3.73;;;;;;;13.92;55.90;99986.44;5033704;28;20263;-68
2023/05/03 02:49:36;;;;;;;7.70;4.27;;;;;;;13.94;55.74;99990.59;5033374;28;20193;-68
2023/05/03 02:52:03;;;;;;;3.97;3.67;;;;;;;13.90;55.80;99989.34;5033171;28;20233;-68
2023/05/03 02:54:30;;;;;;;11.07;7.03;;;;;;;13.88;56.12;99991.38;5015068;28;20190;-68
2023/05/03 02:56:57;;;;;;;3.90;3.53;;;;;;;13.86;56.25;100008.66;5013665;28;20632;-68
2023/05/03 02:59:23;;;;;;;3.90;3.50;;;;;;;13.85;56.40;100023.03;5013756;28;20190;-68
2023/05/03 03:01:50;;;;;;;5.10;4.60;;;;;;;13.34;57.88;100020.06;5013294;28;20202;-68
2023/05/03 03:04:17;;;;;;;4.20;3.80;;;;;;;13.39;57.90;100033.59;5017566;28;20221;-69
2023/05/03 03:06:45;;;;;;;4.80;3.63;;;;;;;13.51;57.75;100026.66;5013505;28;20210;-69
2023/05/03 03:09:12;;;;;;;7.97;4.00;;;;;;;13.57;57.98;100028.53;5013487;28;20202;-68
2023/05/03 03:11:39;;;;;;;4.60;4.30;;;;;;;13.49;57.55;100028.72;5013472;28;20304;-68
2023/05/03 03:14:05;;;;;;;4.67;4.37;;;;;;;13.28;58.43;100034.19;5026099;28;20189;-68
2023/05/03 03:16:33;;;;;;;5.80;4.53;;;;;;;13.15;59.01;100036.81;5033178;28;20204;-68
2023/05/03 03:19:00;;;;;;;5.20;4.70;;;;;;;12.95;59.70;100035.84;5032888;28;20194;-67
2023/05/03 03:21:27;;;;;;;4.30;3.57;;;;;;;12.84;60.31;100039.09;5032569;28;20232;-67
2023/05/03 03:23:55;;;;;;;7.57;5.40;;;;;;;12.86;60.46;100042.38;5021762;28;20198;-66
2023/05/03 03:26:22;;;;;;;3.67;3.47;;;;;;;12.79;60.82;100043.38;5013224;28;20198;-65
2023/05/03 03:28:49;;;;;;;5.67;3.70;;;;;;;12.69;61.42;100038.38;5013193;28;20221;-66
2023/05/03 03:31:17;;;;;;;3.90;3.67;;;;;;;12.29;62.91;100039.13;5014355;28;20194;-67
2023/05/03 03:33:43;;;;;;;3.87;2.97;;;;;;;12.26;63.29;100042.22;5032627;28;20970;-67
2023/05/03 03:36:10;;;;;;;3.90;3.53;;;;;;;12.01;64.44;100062.25;5032815;28;20189;-67
2023/05/03 03:38:37;;;;;;;4.47;3.77;;;;;;;12.06;65.19;100069.69;5032361;28;20200;-66
2023/05/03 03:41:05;;;;;;;3.43;3.23;;;;;;;12.16;67.40;100062.19;5031993;28;20201;-65
2023/05/03 03:43:32;;;;;;;4.67;3.80;;;;;;;12.31;67.36;100070.91;5012835;28;20739;-66
2023/05/03 03:45:59;;;;;;;5.83;3.83;;;;;;;12.36;64.92;100071.97;5012584;28;20258;-67
2023/05/03 03:48:26;;;;;;;5.83;4.20;;;;;;;12.27;64.65;100077.63;5012341;28;20197;-67
2023/05/03 03:50:53;;;;;;;4.03;3.70;;;;;;;11.91;66.40;100083.06;5014920;28;20676;-66
2023/05/03 03:53:19;;;;;;;5.93;3.70;;;;;;;11.80;67.40;100078.22;5030830;28;20224;-67
2023/05/03 03:55:46;;;;;;;4.30;4.00;;;;;;;11.93;67.29;100075.72;5028670;28;20246;-70
2023/05/03 03:58:14;;;;;;;4.63;4.27;;;;;;;11.91;67.34;100074.22;5029206;28;20283;-68
2023/05/03 04:00:41;;;;;;;4.57;4.07;;;;;;;12.14;67.10;100089.03;5029919;28;20252;-67
2023/05/03 04:03:08;;;;;;;6.00;4.30;;;;;;;12.27;66.66;100088.28;5028624;28;20292;-68
2023/05/03 04:05:35;;;;;;;4.43;4.03;;;;;;;12.33;66.69;100103.53;5011817;28;20239;-67
2023/05/03 04:08:01;;;;;;;4.60;4.23;;;;;;;12.47;66.39;100095.44;5011985;28;20197;-68
2023/05/03 04:10:28;;;;;;;5.20;4.07;;;;;;;12.50;66.21;100111.03;5015084;28;20255;-68
2023/05/03 04:12:55;;;;;;;4.57;4.03;;;;;;;12.03;68.08;100092.19;5029283;28;20229;-71
2023/05/03 04:15:23;;;;;;;5.07;4.60;;;;;;;12.10;68.75;100109.06;5030675;28;20196;-67
2023/05/03 04:17:50;;;;;;;4.40;4.13;;;;;;;12.27;68.73;100114.94;5029047;28;20212;-70
2023/05/03 04:20:18;;;;;;;4.10;3.87;;;;;;;11.91;70.35;100125.66;5029948;28;20204;-67
2023/05/03 04:22:44;;;;;;;5.57;4.00;;;;;;;12.10;69.95;100127.69;5030679;28;20800;-67
2023/05/03 04:25:13;;;;;;;4.87;4.47;;;;;;;12.32;69.78;100134.66;5030524;28;20196;-67
2023/05/03 04:27:40;;;;;;;4.83;4.43;;;;;;;12.42;69.66;100145.00;5030238;28;20196;-69
2023/05/03 04:30:08;;;;;;;5.07;4.67;;;;;;;12.29;71.88;100144.88;5029455;28;20229;-69
2023/05/03 04:32:36;;;;;;;6.57;4.00;;;;;;;12.33;71.20;100164.78;5014104;28;20225;-69
2023/05/03 04:35:05;;;;;;;5.20;4.20;;;;;;;12.28;70.99;100160.03;5014538;28;20443;-69
2023/05/03 04:37:32;;;;;;;4.23;3.87;;;;;;;12.50;70.80;100190.97;5015571;28;20312;-68
2023/05/03 04:39:58;;;;;;;4.47;3.97;;;;;;;12.37;72.17;100185.50;5015228;28;20279;-68
2023/05/03 04:42:25;;;;;;;6.27;4.43;;;;;;;12.38;72.78;100192.53;5031756;28;20642;-69
2023/05/03 04:44:52;;;;;;;5.63;4.73;;;;;;;12.57;72.52;100196.38;5034571;28;20205;-68
2023/05/03 04:47:19;;;;;;;7.83;4.60;;;;;;;12.31;73.64;100191.63;5034360;28;20664;-66
2023/05/03 04:49:47;;;;;;;5.03;4.03;;;;;;;12.04;74.62;100203.00;5035185;28;20200;-67
2023/05/03 04:52:14;;;;;;;4.50;4.10;;;;;;;12.23;75.29;100198.91;5033016;28;20271;-67
2023/05/03 04:54:41;;;;;;;5.73;4.27;;;;;;;12.23;75.60;100202.41;5033255;28;20231;-68
2023/05/03 04:57:09;;;;;;;5.00;4.60;;;;;;;12.15;77.02;100196.34;5035085;28;20193;-67
2023/05/03 04:59:35;;;;;;;5.10;4.70;;;;;;;12.33;77.65;100215.41;5034637;28;20225;-66
2023/05/03 05:02:02;;;;;;;5.30;4.80;;;;;;;12.33;77.21;100216.22;5033265;28;20236;-65
2023/05/03 05:04:29;;;;;;;5.73;4.70;;;;;;;12.24;76.54;100217.34;5028570;28;20589;-67
2023/05/03 05:06:58;;;;;;;5.90;5.30;;;;;;;12.39;76.66;100220.81;5016647;28;20204;-67
2023/05/03 05:09:27;;;;;;;5.53;5.10;;;;;;;12.44;77.40;100229.03;5024418;28;20284;-67
2023/05/03 05:11:54;;;;;;;6.03;5.57;;;;;;;12.44;78.59;100238.88;5034201;28;20221;-68
2023/05/03 05:14:21;;;;;;;7.50;6.27;;;;;;;12.49;78.75;100231.97;5018621;28;20670;-68
2023/05/03 05:16:48;;;;;;;8.53;6.70;;;;;;;12.66;78.65;100238.69;5014011;28;20207;-67
2023/05/03 05:19:15;;;;;;;7.27;6.63;;;;;;;12.80;79.02;100236.97;5027413;28;20197;-69
2023/05/03 05:21:42;;;;;;;7.17;6.63;;;;;;;12.71;79.08;100244.28;5027704;28;20709;-68
2023/05/03 05:24:10;;;;;;;6.93;6.23;;;;;;;12.65;78.49;100238.88;5013472;28;20201;-72
2023/05/03 05:26:37;;;;;;;6.70;6.20;;;;;;;12.69;78.60;100222.31;5012850;28;20490;-65
2023/05/03 05:29:04;;;;;;;7.07;6.57;;;;;;;12.69;79.33;100222.31;5026263;28;20637;-67
2023/05/03 05:31:31;;;;;;;7.30;6.77;;;;;;;12.83;79.22;100226.72;5033080;28;20193;-69
2023/05/03 05:33:57;;;;;;;7.93;6.53;;;;;;;12.54;79.41;100218.88;5033853;28;20786;-69
2023/05/03 05:36:24;;;;;;;10.40;7.97;;;;;;;12.59;79.79;100221.81;5028995;28;20196;-70
2023/05/03 05:38:51;;;;;;;8.33;7.53;;;;;;;12.54;79.60;100208.22;5017443;28;20198;-67
2023/05/03 05:41:20;;;;;;;7.60;6.60;;;;;;;12.45;80.38;100220.03;5021690;28;20637;-68
2023/05/03 05:43:47;;;;;;;8.80;7.10;;;;;;;11.89;82.47;100207.56;5029898;28;20266;-68
2023/05/03 05:46:14;;;;;;;7.60;6.93;;;;;;;12.24;82.02;100217.34;5031297;28;20280;-68
2023/05/03 05:48:41;;;;;;;6.80;6.20;;;;;;;12.41;81.62;100216.09;5033725;28;20541;-68
2023/05/03 05:51:08;;;;;;;7.40;6.03;;;;;;;12.47;81.41;100202.03;5033741;28;20228;-67
2023/05/03 05:53:34;;;;;;;6.87;5.97;;;;;;;12.66;80.71;100212.03;5033851;28;20290;-68
2023/05/03 05:56:01;;;;;;;6.13;5.77;;;;;;;12.78;80.28;100201.69;5033036;28;20714;-68
2023/05/03 05:58:29;;;;;;;7.63;6.80;;;;;;;12.94;80.10;100199.53;5013722;28;20720;-67
2023/05/03 06:00:59;;;;;;;8.63;8.00;;;;;;;12.85;80.30;100203.38;5014372;28;20198;-66
2023/05/03 06:03:26;;;;;;;9.33;8.37;;;;;;;12.78;81.10;100207.81;5018250;28;20182;-67
2023/05/03 06:05:53;;;;;;;8.67;8.00;;;;;;;12.80;81.16;100200.47;5029385;28;20294;-67
2023/05/03 06:08:20;;;;;;;8.80;8.00;;;;;;;13.02;81.70;100202.09;5032132;28;20193;-67
2023/05/03 06:10:46;;;;;;;8.40;7.63;;;;;;;13.26;82.44;100198.97;5032834;28;20196;-66
2023/05/03 06:13:13;;;;;;;8.30;7.70;;;;;;;13.43;81.22;100199.50;5025695;28;20229;-64
2023/05/03 06:15:41;;;;;;;7.77;7.07;;;;;;;12.96;80.37;100202.03;5021102;28;20196;-67
2023/05/03 06:18:08;;;;;;;7.83;7.20;;;;;;;12.66;81.07;100196.03;5033268;28;20189;-66
2023/05/03 06:20:35;;;;;;;11.80;7.37;;;;;;;12.99;81.38;100205.16;5032730;28;20800;-65
2023/05/03 06:23:02;;;;;;;7.13;6.30;;;;;;;12.89;81.05;100212.63;5032802;28;20197;-66
2023/05/03 06:25:28;;;;;;;7.43;6.27;;;;;;;13.09;81.53;100204.81;5024811;28;20240;-67
2023/05/03 06:27:55;;;;;;;6.87;6.17;;;;;;;13.36;80.53;100210.13;5013215;28;20201;-67
2023/05/03 06:30:24;;;;;;;8.17;7.47;;;;;;;13.40;80.53;100206.03;5013353;28;20237;-65
2023/05/03 06:32:52;;;;;;;8.27;6.83;;;;;;;13.68;78.81;100198.00;5013415;28;20226;-67
2023/05/03 06:35:20;;;;;;;7.37;6.73;;;;;;;13.88;79.18;100194.34;5017550;28;20546;-65
2023/05/03 06:37:48;;;;;;;7.77;7.10;;;;;;;14.02;79.87;100190.72;5033450;28;20201;-66
2023/05/03 06:40:15;;;;;;;6.13;5.63;;;;;;;14.26;79.20;100186.69;5019013;28;20202;-66
2023/05/03 06:42:42;;;;;;;6.60;6.13;;;;;;;14.28;76.72;100193.50;5013191;28;20554;-67
2023/05/03 06:45:09;;;;;;;6.17;5.57;;;;;;;14.44;77.44;100193.09;5014337;28;20274;-69
2023/05/03 06:47:36;;;;;;;5.53;4.47;;;;;;;14.99;81.42;100184.66;5023009;28;20190;-68
2023/05/03 06:50:05;;;;;;;4.67;3.00;;;;;;;15.86;77.03;100195.81;5033011;28;20197;-64
2023/05/03 06:52:31;;;;;;;4.83;3.40;;;;;;;16.70;71.77;100196.38;5031981;28;20287;-64
2023/05/03 06:54:58;;;;;;;5.43;2.87;;;;;;;17.59;69.10;100197.56;5030904;28;20201;-65
2023/05/03 06:57:25;;;;;;;4.37;3.97;;;;;;;18.15;64.99;100190.06;5031442;28;20195;-64
2023/05/03 06:59:52;;;;;;;4.13;3.83;;;;;;;18.65;61.61;100211.06;5032528;28;20197;-63
2023/05/03 07:02:20;;;;;;;3.83;3.53;;;;;;;19.39;60.08;100207.75;5032468;28;20577;-64
2023/05/03 07:04:46;;;;;;;4.10;3.90;;;;;;;20.00;54.56;100208.00;5017715;28;20202;-64
2023/05/03 07:07:15;;;;;;;4.03;3.57;;;;;;;20.20;54.89;100208.44;5022371;28;20257;-64
2023/05/03 07:09:41;;;;;;;3.87;3.57;;;;;;;20.04;55.69;100201.06;5030646;28;20205;-65
2023/05/03 07:12:08;;;;;;;5.00;3.30;;;;;;;20.47;53.21;100199.50;5032119;28;20335;-67
2023/05/03 07:14:35;;;;;;;5.57;4.47;;;;;;;20.91;49.82;100200.56;5012563;28;20626;-66
2023/05/03 07:17:02;;;;;;;4.80;4.33;;;;;;;20.99;49.66;100204.72;5025053;28;20192;-66
2023/05/03 07:19:29;;;;;;;3.40;3.10;;;;;;;21.15;50.22;100187.69;5012502;28;20495;-66
2023/05/03 07:21:56;;;;;;;3.27;2.90;;;;;;;21.36;48.96;100189.63;5011846;28;20252;-66
2023/05/03 07:24:24;;;;;;;4.07;3.77;;;;;;;21.68;47.10;100193.31;5012428;28;20248;-66
2023/05/03 07:26:51;;;;;;;5.50;4.77;;;;;;;21.86;47.08;100191.16;5012285;28;20325;-66
2023/05/03 07:29:18;;;;;;;10.37;4.53;;;;;;;21.86;46.40;100191.16;5012794;28;20230;-66
2023/05/03 07:31:44;;;;;;;5.97;4.27;;;;;;;22.22;46.53;100201.28;5013954;28;20259;-64
2023/05/03 07:34:11;;;;;;;3.60;3.40;;;;;;;22.35;45.75;100192.78;5018681;28;20225;-63
2023/05/03 07:36:39;;;;;;;6.87;4.87;;;;;;;22.68;43.92;100200.72;5031927;28;20259;-65
2023/05/03 07:39:06;;;;;;;9.77;6.20;;;;;;;20.55;50.19;100182.09;5031865;28;20662;-65
2023/05/03 07:41:34;;;;;;;8.80;3.87;;;;;;;20.50;50.75;100173.91;5031799;28;20197;-65
2023/05/03 07:44:00;;;;;;;6.47;5.87;;;;;;;21.18;47.26;100174.50;5013303;28;20202;-64
2023/05/03 07:46:27;;;;;;;8.63;5.70;;;;;;;21.45;48.15;100167.31;5049867;28;20266;-65
2023/05/03 07:48:54;;;;;;;4.30;3.97;;;;;;;21.92;46.60;100171.19;5052157;28;20259;-64
2023/05/03 07:51:20;;;;;;;4.40;4.00;;;;;;;22.07;46.52;100179.50;5050895;28;20246;-65
2023/05/03 07:53:47;;;;;;;5.93;3.57;;;;;;;22.75;44.69;100184.25;5031656;28;20700;-65
2023/05/03 07:56:14;;;;;;;8.20;4.10;;;;;;;22.99;43.68;100180.13;5029158;28;20263;-66
2023/05/03 07:58:42;;;;;;;4.37;4.00;;;;;;;23.24;42.77;100174.91;5030618;28;20201;-65
2023/05/03 08:01:10;;;;;;;4.07;3.70;;;;;;;23.57;40.81;100177.25;5030861;28;20194;-67
2023/05/03 08:03:36;;;;;;;3.40;3.10;;;;;;;23.51;40.95;100154.69;5021285;28;20256;-65
2023/05/03 08:06:04;;;;;;;10.90;4.63;;;;;;;23.61;40.33;100162.06;5024409;28;20217;-65
2023/05/03 08:08:31;;;;;;;8.70;4.00;;;;;;;23.15;40.89;100146.63;5028278;28;20191;-66
2023/05/03 08:10:57;;;;;;;4.27;3.90;;;;;;;23.39;41.37;100147.84;5013037;28;20255;-65
2023/05/03 08:13:24;;;;;;;7.27;4.10;;;;;;;23.80;39.57;100152.38;5022149;28;20248;-67
2023/05/03 08:15:52;;;;;;;5.30;4.07;;;;;;;23.81;39.27;100156.75;5011116;28;20205;-65
2023/05/03 08:18:19;;;;;;;4.10;3.70;;;;;;;24.23;39.33;100171.84;5011760;28;20193;-65
2023/05/03 08:20:46;;;;;;;5.63;4.73;;;;;;;24.07;38.29;100175.59;5011017;28;20196;-65
2023/05/03 08:23:12;;;;;;;3.70;3.37;;;;;;;23.81;39.47;100154.03;5011395;28;20204;-65
2023/05/03 08:25:39;;;;;;;4.37;3.37;;;;;;;23.48;40.45;100119.97;5029925;28;20202;-64
2023/05/03 08:28:07;;;;;;;4.40;3.40;;;;;;;23.64;40.84;100132.50;5031268;28;20221;-64
2023/05/03 08:30:34;;;;;;;7.63;3.67;;;;;;;23.97;39.51;100140.25;5030984;28;20186;-68
2023/05/03 08:33:02;;;;;;;6.60;4.53;;;;;;;23.20;40.31;100144.75;5031194;28;20706;-65
2023/05/03 08:35:30;;;;;;;5.00;3.83;;;;;;;23.34;41.39;100150.53;5029558;28;20682;-65
2023/05/03 08:37:57;;;;;;;5.33;3.53;;;;;;;23.27;42.22;100152.69;5030089;28;20199;-64
2023/05/03 08:40:27;;;;;;;4.37;3.97;;;;;;;23.06;40.11;100142.75;5030731;28;20194;-65
2023/05/03 08:42:56;;;;;;;4.33;3.93;;;;;;;23.39;38.53;100137.81;5030677;28;20233;-64
2023/05/03 08:45:23;;;;;;;5.80;4.00;;;;;;;23.29;38.77;100132.38;5022398;28;20689;-65
2023/05/03 08:47:54;;;;;;;4.47;4.07;;;;;;;22.54;40.41;100123.66;5012136;28;20195;-67
2023/05/03 08:50:23;;;;;;;6.57;3.63;;;;;;;22.52;41.31;100133.94;5011682;28;20241;-66
2023/05/03 08:52:50;;;;;;;4.33;3.30;;;;;;;22.69;40.60;100131.09;5009974;28;20736;-65
2023/05/03 08:55:16;;;;;;;3.93;3.60;;;;;;;22.97;40.18;100120.75;5010888;28;20198;-64
2023/05/03 08:57:43;;;;;;;3.10;2.90;;;;;;;23.58;39.93;100116.50;5018369;28;20325;-65
2023/05/03 09:00:11;;;;;;;5.17;4.00;;;;;;;24.23;37.52;100108.53;5030236;28;20261;-64
2023/05/03 09:02:39;;;;;;;5.97;3.30;;;;;;;24.52;37.22;100104.22;5030749;28;20275;-62
2023/05/03 09:05:26;;;;;;;5.43;4.13;;;;;;;25.02;35.57;100102.31;5043730;28;20195;-65
2023/05/03 09:08:06;;;;;;;3.27;3.07;;;;;;;25.53;34.95;100113.03;5021888;28;20664;-64
2023/05/03 09:10:33;;;;;;;3.27;3.10;;;;;;;25.64;34.71;100106.47;5030255;28;20205;-65
2023/05/03 09:13:01;;;;;;;6.23;3.77;;;;;;;25.55;34.40;100106.22;5024035;28;20617;-66
2023/05/03 09:15:29;;;;;;;3.57;3.27;;;;;;;24.64;36.11;100116.50;5010993;28;20245;-66
2023/05/03 09:18:09;;;;;;;5.03;4.27;;;;;;;24.54;35.48;100086.56;5019658;28;20259;-64
2023/05/03 09:20:37;;;;;;;8.30;4.10;;;;;;;24.84;36.33;100096.63;5034783;28;20280;-65
2023/05/03 09:23:06;;;;;;;3.77;3.10;;;;;;;24.95;35.53;100092.81;5034585;28;20284;-65
2023/05/03 09:25:46;;;;;;;7.10;5.53;;;;;;;24.38;36.29;100082.22;5030696;28;20204;-64
2023/05/03 09:28:13;;;;;;;106.57;13.77;;;;;;;23.82;38.17;100069.63;5014563;28;20254;-68
2023/05/03 09:30:40;;;;;;;9.93;4.30;;;;;;;23.87;38.73;100076.97;5024337;28;20243;-62
2023/05/03 09:33:06;;;;;;;5.10;4.57;;;;;;;23.59;39.56;100075.53;5030006;28;20433;-65
2023/05/03 09:35:33;;;;;;;7.70;4.90;;;;;;;22.95;40.40;100076.81;5033758;28;20229;-66
2023/05/03 09:38:00;;;;;;;5.60;5.00;;;;;;;23.15;40.33;100071.50;5033239;28;20658;-67
2023/05/03 09:40:29;;;;;;;7.90;5.27;;;;;;;22.57;41.88;100073.56;5034033;28;20215;-67
2023/05/03 09:43:06;;;;;;;5.33;4.83;;;;;;;22.12;42.86;100082.09;5032113;28;20669;-69
2023/05/03 09:45:34;;;;;;;6.57;4.90;;;;;;;22.34;43.00;100085.53;5014051;28;20194;-68
2023/05/03 09:48:02;;;;;;;5.33;4.90;;;;;;;22.25;43.28;100086.31;5013448;28;20202;-70
2023/05/03 09:50:32;;;;;;;4.93;4.73;;;;;;;22.37;43.62;100079.63;5014207;28;20282;-68
2023/05/03 09:53:02;;;;;;;5.53;4.93;;;;;;;22.72;42.53;100082.66;5014534;28;20750;-67
2023/05/03 09:55:32;;;;;;;5.80;4.10;;;;;;;22.31;42.20;100080.66;5033175;28;20190;-66
2023/05/03 09:57:59;;;;;;;4.60;4.20;;;;;;;22.20;42.58;100089.75;5033483;28;20189;-66
2023/05/03 10:00:28;;;;;;;4.57;4.17;;;;;;;22.34;42.90;100085.53;5033441;28;20251;-65
2023/05/03 10:02:58;;;;;;;6.97;4.87;;;;;;;22.46;42.89;100083.50;5032477;28;20259;-64
2023/05/03 10:05:30;;;;;;;4.93;4.37;;;;;;;22.47;42.70;100093.28;5013587;28;20186;-65
2023/05/03 10:08:00;;;;;;;14.70;5.17;;;;;;;22.28;43.17;100108.25;5026481;28;20576;-65
2023/05/03 10:10:32;;;;;;;8.00;5.10;;;;;;;22.07;44.35;100101.00;5033009;28;20731;-65
2023/05/03 10:13:00;;;;;;;7.40;4.50;;;;;;;21.29;47.21;100110.59;5032590;28;20185;-66
2023/05/03 10:15:28;;;;;;;5.30;5.00;;;;;;;21.15;47.60;100112.03;5013259;28;20256;-66
2023/05/03 10:17:58;;;;;;;5.33;4.83;;;;;;;21.09;47.95;100096.81;5013839;28;20248;-67
2023/05/03 10:20:31;;;;;;;5.40;4.87;;;;;;;20.70;49.00;100098.63;5014191;28;20230;-66
2023/05/03 10:23:08;;;;;;;8.87;6.10;;;;;;;20.55;49.36;100061.41;5013243;28;20194;-69
2023/05/03 10:25:38;;;;;;;6.47;5.97;;;;;;;20.63;49.37;100069.09;5033324;28;20567;-70
2023/05/03 10:28:07;;;;;;;9.37;5.83;;;;;;;20.42;50.42;100064.47;5033251;28;20688;-67
2023/05/03 10:30:34;;;;;;;10.53;5.40;;;;;;;20.34;51.13;100066.78;5032605;28;20212;-69
2023/05/03 10:33:29;;;;;;;6.53;4.93;;;;;;;20.33;51.27;100057.00;5019609;28;20284;-66
2023/05/03 10:35:57;;;;;;;31.10;6.87;;;;;;;20.36;51.43;100051.97;5016338;28;20670;-67
2023/05/03 10:38:25;;;;;;;5.07;4.63;;;;;;;20.50;51.53;100049.75;5012811;28;20194;-68
2023/05/03 10:40:56;;;;;;;7.23;6.00;;;;;;;20.74;49.77;100063.88;5013159;28;20574;-69
2023/05/03 10:43:52;;;;;;;17.37;6.03;;;;;;;20.67;50.42;100049.72;5023240;28;20219;-69
2023/05/03 10:46:34;;;;;;;4.93;4.63;;;;;;;20.71;51.29;100053.56;4972035;28;20184;-69
2023/05/03 10:49:25;;;;;;;5.70;5.30;;;;;;;20.33;51.26;100025.47;5007552;28;20697;-70
2023/05/03 10:51:52;;;;;;;5.30;4.37;;;;;;;20.45;51.42;100031.59;5016010;28;20273;-69
2023/05/03 10:54:19;;;;;;;4.80;4.40;;;;;;;20.36;51.58;100027.69;5028710;28;20218;-70
2023/05/03 10:56:53;;;;;;;5.07;4.63;;;;;;;19.91;52.51;100034.16;5015007;28;20195;-68
2023/05/03 10:59:20;;;;;;;7.63;3.90;;;;;;;20.08;53.03;100035.81;5027224;28;20204;-70
2023/05/03 11:01:50;;;;;;;9.53;4.40;;;;;;;20.03;52.64;100056.47;5029646;28;20260;-73
2023/05/03 11:04:30;;;;;;;4.93;4.60;;;;;;;19.72;53.85;100027.31;5019999;28;20281;-71
2023/05/03 11:06:58;;;;;;;4.03;3.80;;;;;;;19.54;54.47;100036.44;5022945;28;20244;-72
2023/05/03 11:09:31;;;;;;;6.97;4.80;;;;;;;19.37;55.74;100029.38;5011493;28;20224;-69
2023/05/03 11:12:03;;;;;;;8.53;4.17;;;;;;;19.30;56.08;100021.44;5011921;28;20650;-68
2023/05/03 11:14:29;;;;;;;4.63;4.37;;;;;;;18.72;58.50;100034.16;5025087;28;20756;-70
2023/05/03 11:16:56;;;;;;;5.03;4.73;;;;;;;18.94;58.49;100026.25;5031294;28;20196;-72
2023/05/03 11:19:24;;;;;;;5.33;4.80;;;;;;;18.93;57.78;100024.63;5026520;28;20279;-74
2023/05/03 11:21:51;;;;;;;10.27;5.27;;;;;;;18.84;58.18;100020.69;5032110;28;20262;-69
2023/05/03 11:24:18;;;;;;;6.40;5.03;;;;;;;18.48;59.67;100023.63;5030600;28;20208;-71
2023/05/03 11:26:45;;;;;;;5.70;4.73;;;;;;;18.72;60.01;100033.31;5014245;28;20199;-70
2023/05/03 11:29:15;;;;;;;8.33;4.53;;;;;;;18.77;59.93;100014.59;5016002;28;20803;-70